Create Custom Reports and Graphics: Custom Report

North/Central Map

Map

15 Minute Data

South County Map

Map

15 Minute Data

Northern Sonoma County Latest

15 Stations

15 Minute Data | America/Los_Angeles
as of 12/7/21 6:30 PM PST
Station Date Time Temp (°F) RH (%) Dew Pt (°F) Wind Spd (mph) Wind Dir (°) Wind Gust (mph) Latest Rain (In) Daily Rain (In) Daily Min Temp (°F) Daily Max Temp (°F)
Rockpile Lower (Cooley) 12/7/21 1800 53.5   4.9 85   2 49.0   4.2 1.5 NW | 324 3.6   1.3 0.00 0.01 44.3   2.5 66.9   11.0
Rockpile Upper (Cooley) 12/7/21 1815 52.6   6.1 83   4 47.5   7.5 1.1 NNW | 336 3.3   6.6 0.00 0.00 42.6   3.0 63.7   7.0
Cloverdale-East (Ranch 83) 12/7/21 1815 51.6   4.5 90   8 48.8   2.1 0.5 SE | 146 1.6   1.2 0.00 0.00 44.6   6.6 62.3   13.8
Cloverdale-SE (Ranch 38) 12/7/21 1815 54.1   7.9 87   11 50.4   4.7 0.9 S | 189 3.0   1.5 0.00 0.00 46.0   6.4 64.0   8.7
Geyserville-North (Hoffman) 12/7/21 1815 50.2   2.9 90   6 47.5   1.3 1.6 W | 272 2.2   0.6 0.00 0.00 44.5   9.3 64.3   16.4
Geyserville (Ranch 3) 12/7/21 1815 50.4   3.0 94   6 48.7   1.3 1.3 W | 266 2.4   0.7 0.00 0.00 45.4   8.8 63.7   15.9
Geyserville-East (Ranch 40) 12/7/21 1815 53.7   8.3 89   11 50.5   5.1 4.2 SSE | 161 6.0   2.4 0.00 0.01 44.3   3.8 66.0   15.4
Geyserville-South (Nervo Station) 12/7/21 1815 53.6   6.8 89   11 50.5   3.7 1.0 SSW | 195 3.4   3.4 0.00 0.00 45.9   4.9 62.7   15.6
Lytton (River Oaks) 12/7/21 1815 48.6   1.2 96   4 47.6   0.1 1.3 ESE | 120 3.8   2.5 0.00 0.01 46.0   9.3 65.6   17.8
Jimtown-North (Piccolo-R15) 12/7/21 1815 49.5   2.1 87   13 45.7   1.8 0.8 NNE | 33 2.9   0.7 0.00 0.00 46.1   10.5 65.3   17.5
Jimtown-NE (Red Fan) 12/7/21 1815 50.4   2.7 95   3 49.0   1.7 1.2 E | 97 2.8   1.1 0.00 0.00 46.2   9.1 65.4   17.3
HWY 128/Chalk Hill Rd (Landslide) 12/7/21 1815 49.0   1.1 97   2 48.2   0.5 1.5 NE | 37 2.7   0.6 0.00 0.00 46.0   9.7 64.1   15.3
Knights Valley (Bavarian Lion) 12/7/21 1815 49.3   1.6 95   1 47.9   1.9 0.8 N | 7 2.6   0.4 0.00 0.00 45.3   8.2 63.0   13.7
Upper Dry Creek Valley 12/7/21 1815 50.0   2.5 95   3 48.5   1.7 1.1 NNW | 327 3.6   1.5 0.00 0.01 45.7   8.9 65.5   17.4
Lower Dry Creek Valley 12/7/21 1815 52.8   5.1 92   8 50.4   2.7 2.2 SE | 135 4.6   3.5 0.00 0.00 46.8   7.4 61.6   13.6
Max     54.1 97 50.5 4.2 - 6.0 0.00 0.01 46.8 66.9
Avg     51.3 91 48.7 1.4 - 3.2 0.00 - - -
Min     48.6 83 45.7 0.5 - 1.6 0.00 0.00 42.6 61.6

Central Sonoma County Latest

29 Stations

15 Minute Data | America/Los_Angeles
as of 12/7/21 6:30 PM PST
Station Date Time Temp (°F) RH (%) Dew Pt (°F) Wind Spd (mph) Wind Dir (°) Wind Gust (mph) Latest Rain (In) Daily Rain (In) Daily Min Temp (°F) Daily Max Temp (°F)
Healdsburg-South (Sodini) 12/7/21 1815 51.7   4.0 92   8 49.4   1.9 0.3 NE | 56 2.4   2.4 0.00 0.00 44.8   4.4 62.2   14.4
Windsor-NW (Ranch 8) 12/7/21 1815 52.7   4.9 82   2 47.4   4.4 1.0 SE | 135 2.6   1.2 0.00 0.00 46.8   4.0 62.3   14.3
Windsor-East (Ranch 16) 12/7/21 1815 50.3   2.5 93   6 48.3   0.7 0.3 ENE | 74 1.9   0.9 0.00 0.00 44.2   5.9 61.1   13.0
Mark West-North (Ranch 14) 12/7/21 1815 51.6   4.0 93   4 49.7   2.8 0.6 ESE | 104 2.5   0.8 0.00 0.00 44.5   1.0 61.9   13.9
Windsor-SE (Silk Rd) 12/7/21 1815 50.5   2.6 94   5 48.8   1.3 0.4 ENE | 61 1.4   0.1 0.00 0.00 44.4   2.7 60.7   12.5
Fulton-NW (Ranch 5) 12/7/21 1830 50.8   3.1 96   4 49.8   2.1 0.8 ENE | 67 1.8   0.8 0.00 0.01 44.3   0.6 59.1   11.0
Windsor-South (Laughlin Rd) 12/7/21 1815 51.8   4.0 - - - - - 0.00 0.00 46.5   3.0 60.5   12.4
Fulton-SE (Barnes Rd) 12/7/21 1830 51.5   3.7 94   3 49.9   2.8 1.5 ESE | 111 3.3   0.2 0.00 0.00 44.1   1.2 59.2   10.8
Fulton-SW (Ranch 21) 12/7/21 1815 51.4   3.8 95   5 50.1   2.5 3.7 SE | 140 6.8   4.4 0.00 0.00 45.3   1.8 58.8   10.7
Santa Rosa-NW (Goldfields) 12/7/21 1815 51.5   3.5 97   3 50.6   2.6 4.0 ESE | 122 6.4   2.8 0.00 0.01 45.9   1.8 60.8   12.4
NW Santa Rosa (Piner Road) 12/7/21 1815 51.7   3.8 95   3 50.4   2.9 2.5 ESE | 116 4.6   3.1 0.00 0.00 45.9   2.1 58.9   10.6
River Rd South (Denner Ranch) 12/7/21 1815 50.8   3.0 99   1 50.6   2.8 2.6 ESE | 116 4.8   2.6 - - 46.8   3.1 60.1   11.8
West Santa Rosa (Hawk's Roost) 12/7/21 1815 51.2   3.2 96   2 50.0   2.6 0.4 ESE | 102 1.6   0.2 0.00 0.00 46.1   2.3 60.5   11.7
Guerneville Rd (Prokopakis) 12/7/21 1815 51.7   3.5 97   2 50.8   2.8 - - - 0.00 0.00 47.5   3.6 61.7   12.6
Guerneville Rd West (Balletto) 12/7/21 1830 50.7   2.5 96   2 49.7   2.0 0.4 E | 82 1.2   2.1 0.00 0.00 46.2   2.5 60.2   11.7
Guerneville Rd East (Rich Ranch) 12/7/21 1815 51.5   3.2 96   4 50.3   2.3 - - - - - 45.3   1.3 59.7   10.9
Occidental Rd (Sebastopol) 12/7/21 1815 50.2   2.1 100   0 50.2   2.1 2.3 SE | 130 4.6   2.2 0.00 0.00 45.7   2.4 62.3   13.4
Lower Westside Rd (Ranch 12) 12/7/21 1815 51.7   3.9 92   6 49.4   2.2 0.6 NW | 313 3.0   1.7 0.00 0.00 47.2   5.8 63.1   15.0
Guerneville (Laughlin Rd) 12/7/21 1830 48.0   0.5 98   1 47.4   0.3 0.8 N | 351 2.0   1.2 0.00 0.01 47.7   2.9 63.3   13.6
Korbel (Winery) 12/7/21 1815 49.9   1.2 97   0 49.0   1.2 0.6 SW | 221 2.6   0.8 0.00 0.00 48.6   3.6 64.0   14.6
Forestville (Shone Farms) 12/7/21 1815 51.9   4.4 94   4 50.1   3.2 1.4 ESE | 112 3.8   1.6 0.00 0.01 45.4   2.4 62.0   12.8
Forestville-NE (Ranch 30) 12/7/21 1815 51.2   3.9 94   4 49.6   2.7 0.8 SE | 131 3.9   0.8 0.00 0.00 46.9   4.1 63.2   15.6
Green Valley Vineyard 12/7/21 1815 48.8   1.3 97   2 48.0   0.6 0.7 N | 354 1.8   0.9 0.00 0.01 46.8   3.2 60.5   12.6
Graton-West (Dutton Ranch) 12/7/21 1815 49.1   0.7 100   0 49.1   0.7 1.4 NE | 37 2.5   1.3 0.00 0.01 47.8   3.2 62.8   14.3
Graton-South (Mill Station Rd) 12/7/21 1830 48.3   0.2 95   5 46.8   1.1 0.4 N | 358 1.5   1.5 0.00 0.00 47.2   3.4 60.9   12.3
Occidental (Horseshoe Bend) 12/7/21 1815 49.8   2.6 98   1 49.3   2.4 - - - - - 46.0   3.3 61.2   10.0
Sexton Valley (Jacqueline's Blk) 12/7/21 1815 47.8   0.4 96   2 46.7   0.9 0.9 WNW | 283 1.8   0.0 0.00 0.00 47.1   2.9 59.6   11.2
Sebastopol Hills (Burnside Rd) 12/7/21 1830 49.4   2.3 98   2 48.8   1.7 1.1 NW | 324 2.8   0.1 0.00 0.00 46.3   3.1 59.8   12.4
Seaview/Fort Ross (Hirsch) 12/7/21 1815 50.0   2.8 94   0 48.4   2.9 2.4 NW | 321 7.1   1.8 0.00 0.02 45.6   1.4 61.5   2.4
Max     52.7 100 50.8 4.0 - 7.1 0.00 0.02 48.6 64.0
Avg     50.6 95 49.2 1.3 - 3.2 0.00 - - -
Min     47.8 82 46.7 0.3 - 1.2 0.00 0.00 44.1 58.8

Southern Sonoma County Latest

16 Stations

15 Minute Data | America/Los_Angeles
as of 12/7/21 6:30 PM PST
Station Date Time Temp (°F) RH (%) Dew Pt (°F) Wind Spd (mph) Wind Dir (°) Wind Gust (mph) Latest Rain (In) Daily Rain (In) Daily Min Temp (°F) Daily Max Temp (°F)
Upper Rincon Valley 12/7/21 1815 51.5   5.5 91   8 49.0   3.3 1.4 ENE | 68 2.8   1.3 0.00 0.00 43.1   1.3 58.7   6.8
Lower Bennett Valley 12/7/21 1815 50.1   2.6 98   0 49.4   2.7 3.1 SE | 143 5.9   3.1 0.00 0.01 42.9   8.1 60.3   10.6
Kenwood (Kunde) 12/7/21 1800 47.2 99 47.1 0.0 N | 0 0.0 0.00 0.03 34.0 62.3
Sonoma Valley (Bedrock) 12/7/21 1830 48.1   1.7 96   94 47.1   86.4 0.0 WSW | 237 1.1   1.3 0.00 0.00 44.1   9.8 61.0   13.6
Sonoma-West (Arnold) 12/7/21 1815 50.0   1.8 93   1 48.0   1.4 1.9 SW | 220 3.9   3.0 0.00 0.00 46.6   10.9 61.6   12.4
Sonoma Valley HS 12/7/21 1815 50.9   2.8 95   1 49.6   2.4 1.5 E | 98 2.5   1.2 0.00 0.00 45.3   8.5 59.9   11.1
Sonoma East (Bundschu01) 12/7/21 1815 50.2   1.9 95   2 48.8   1.5 2.5 SE | 141 4.4   2.6 0.00 0.00 46.3   10.1 61.0   11.5
Schellville (Sasaki) 12/7/21 1830 51.4   2.6 93   1 49.6   2.4 0.1 ENE | 72 2.4   2.4 0.00 0.00 46.5   10.4 63.0   13.0
Sonoma-SE (Napoli) 12/7/21 1815 50.2   1.6 92   2 47.9   1.0 0.0 N | 0 0.0   0.0 0.00 0.00 46.4   9.4 61.8   12.5
Carneros (Ranch 71) 12/7/21 1815 50.8   3.3 98   0 50.2   3.2 1.2 NW | 326 3.1   1.8 0.00 0.00 46.1   3.7 59.8   11.2
Carneros Upper (Ranch 81) 12/7/21 1830 51.2   3.6 94   1 49.7   3.4 3.1 W | 281 5.8   2.3 - - 46.1   3.5 60.4   11.7
Carneros Lower (Ranch 81) 12/7/21 1815 49.9   1.8 95   1 48.6   2.0 0.4 SSE | 162 1.9   0.4 0.00 0.00 46.3   9.8 60.2   10.9
Rohnert Park-West (Stony Point) 12/7/21 1830 51.2   2.4 98   2 50.6   2.9 1.1 S | 179 4.0   1.9 0.00 0.01 46.8   2.8 59.1   9.3
Penngrove (Asellus) 12/7/21 1815 52.6   4.4 95   1 51.2   4.1 2.5 E | 89 4.6   1.6 0.00 0.00 46.0   7.1 61.9   13.0
Roger's Creek (Ranch 50) 12/7/21 1830 49.7   3.9 100   0 49.7   3.9 0.7 SE | 133 2.1   1.5 0.00 0.01 45.2   2.7 57.4   10.7
Petaluma (Ranch 10) 12/7/21 1815 53.4   5.0 90   4 50.6   3.7 0.5 N | 354 2.1   0.5 0.00 0.00 46.0   10.0 63.9   14.0
Max     53.4 100 51.2 3.1 - 5.9 0.00 0.03 46.8 63.9
Avg     50.5 95 49.2 1.3 - 2.9 0.00 - - -
Min     47.2 90 47.1 0.0 - 0.0 0.00 0.00 34.0 57.4

Latest Observations

Map

Hourly Data